Bangor, New York
Current Conditions -  °F | °C
As of 1:53 PM on Tuesday 27 Jan 2015 (Local Time) from KMSS Reporting Station
Clear Clear  
Wind Chill: -7°   Ceiling: Unl
Heat Index: 11°   Visibility: 10mi
Dew Point: -5°   Wind: 18mph
Humidity: 49%   Direction: 40°NE
Pressure: 30.07"   Gusts: NA
Location:  44.7973°N, 74.4173°W
Report Text: KMSS 271853Z AUTO 04016KT 10SM CLR M12/M21 A3007 RMK AO2 SLP194 T11171206
Loading
Personal Weather Stations






























Interactive Weather Map New forecast layout! Learn more

10-Day Weather Forecast

Advertisements
Track Severe Weather on mobile